Akane — H3UD — position and weather

sailwx.info

Track history (hours):
 
Tides and Currents Weather Stations Pressure Air Temp Water Temp Dewpoint Dewpoint Depression Visibility Wind Speed Wind Dir Waves Ship Positions

Akane

Last reported at 2017-Jun-07 10:47 UTC. Time now 2017-Jun-23 20:31 UTC.
Position N 34°04' E 134°56'.
Warning: this ship's position is 16 days out of date.

Length 180 m; draft 11.3 m.

Type: Tanker. MMSI: 353172000.

Date/timePositionNaut miles runAvg speedWind from/ knotsBaromVisibWave heightAir tempDewpointWater temp
2017-Jun-07 10:47N 34°04' E 134°56'312.1
2017-Jun-07 10:30N 34°08' E 134°57'510.3
2017-Jun-07 10:00N 34°13' E 134°57'4 7.5
2017-Jun-07 09:30N 34°16' E 134°58'1311.5
2017-Jun-07 08:22N 34°29' E 135°04'412.1
2017-Jun-07 08:00N 34°33' E 135°07'3 6.8
2017-Jun-07 07:30N 34°35' E 135°04'510.2
2017-Jun-07 07:00N 34°37' E 134°58'  
2017-Jun-04 20:52N 34°36' E 134°53'711.8
2017-Jun-04 20:17N 34°37' E 135°01'311.9
2017-Jun-04 20:00N 34°36' E 135°04'3 6.7
2017-Jun-04 19:30N 34°34' E 135°07'4 7.3
2017-Jun-04 19:00N 34°30' E 135°07'510.5
2017-Jun-04 18:30N 34°25' E 135°04'612.2
2017-Jun-04 18:00N 34°20' E 135°01'511.1
2017-Jun-04 17:30N 34°14' E 134°59'510.6
2017-Jun-04 17:00N 34°09' E 134°60'5 9.9
2017-Jun-04 16:30N 34°04' E 134°60'5 9.9
2017-Jun-04 16:00N 33°59' E 134°59'4 9.0
2017-Jun-04 15:30N 33°55' E 134°58'611.3
2017-Jun-04 14:56N 33°48' E 134°58'  
2017-Jun-01 15:43N 35°04' E 140°34'  
Track history (hours):
 
Tides and Currents Weather Stations Pressure Air Temp Water Temp Dewpoint Dewpoint Depression Visibility Wind Speed Wind Dir Waves Ship Positions

Akane

Last reported at 2017-Jun-07 10:47 UTC. Time now 2017-Jun-23 20:31 UTC.
Position N 34°04' E 134°56'.
Warning: this ship's position is 16 days out of date.

Length 180 m; draft 11.3 m.

Type: Tanker. MMSI: 353172000.

Date/timePositionNaut miles runAvg speedWind from/ knotsBaromVisibWave heightAir tempDewpointWater temp
2017-Jun-07 10:47N 34°04' E 134°56'312.1
2017-Jun-07 10:30N 34°08' E 134°57'510.3
2017-Jun-07 10:00N 34°13' E 134°57'4 7.5
2017-Jun-07 09:30N 34°16' E 134°58'1311.5
2017-Jun-07 08:22N 34°29' E 135°04'412.1
2017-Jun-07 08:00N 34°33' E 135°07'3 6.8
2017-Jun-07 07:30N 34°35' E 135°04'510.2
2017-Jun-07 07:00N 34°37' E 134°58'  
2017-Jun-04 20:52N 34°36' E 134°53'711.8
2017-Jun-04 20:17N 34°37' E 135°01'311.9
2017-Jun-04 20:00N 34°36' E 135°04'3 6.7
2017-Jun-04 19:30N 34°34' E 135°07'4 7.3
2017-Jun-04 19:00N 34°30' E 135°07'510.5
2017-Jun-04 18:30N 34°25' E 135°04'612.2
2017-Jun-04 18:00N 34°20' E 135°01'511.1
2017-Jun-04 17:30N 34°14' E 134°59'510.6
2017-Jun-04 17:00N 34°09' E 134°60'5 9.9
2017-Jun-04 16:30N 34°04' E 134°60'5 9.9
2017-Jun-04 16:00N 33°59' E 134°59'4 9.0
2017-Jun-04 15:30N 33°55' E 134°58'611.3
2017-Jun-04 14:56N 33°48' E 134°58'  
2017-Jun-01 15:43N 35°04' E 140°34'  

Dump ship's entire track history